LFOK

Châlons-Vatry Air Base

Airport
ICAO code
LFOK
IATA Code
XCR
Summary
ICAO Region
EUR
ICAO Territory
Location

, Champagne-Ardenne

Serving
Chalons
Elevation
587 ft
Coordinates
48° 46' 34" N , 4° 11' 4" E
Metar
Observation
LFOK 280400Z AUTO 22012KT 9999 -RA BKN010 BKN014 OVC060 07/07 Q1011 TEMPO 3000 OVC004
Station
Chalons-Vatry
Date/Time
2022-11-28 04:00:00
Wind direction
220°
Wind speed
12 kts
Lowest cloud amount
broken clouds
Temperature
7°C
Dew point
7°C
Humidity
100%
QNH
1011 hPa
Weather condition
light rain

Runways

Designator Length Width Surface Rops
10/28 3860 45 CON Yes/Yes

Airport map

Aerial View

SKYbrary Partners:

Safety knowledge contributed by: